createdAt,value
2024-01-18T00:01:40.462Z,-0.58
2024-01-18T00:05:06.987Z,-0.60
2024-01-18T00:08:33.116Z,-0.62
2024-01-18T00:11:59.378Z,-0.65
2024-01-18T00:15:25.718Z,-0.68
2024-01-18T00:18:51.695Z,-0.68
2024-01-18T00:22:18.175Z,-0.66
2024-01-18T00:25:44.394Z,-0.61
2024-01-18T00:29:10.623Z,-0.56
2024-01-18T00:32:36.894Z,-0.51
2024-01-18T00:36:03.139Z,-0.45
2024-01-18T00:39:29.297Z,-0.39
2024-01-18T00:42:55.574Z,-0.34
2024-01-18T00:46:23.354Z,-0.29
2024-01-18T00:49:49.102Z,-0.25
2024-01-18T00:53:14.790Z,-0.23
2024-01-18T00:56:41.188Z,-0.22
2024-01-18T01:00:09.290Z,-0.23
2024-01-18T01:03:35.564Z,-0.24
2024-01-18T01:07:02.055Z,-0.27
2024-01-18T01:10:28.535Z,-0.29
2024-01-18T01:13:55.069Z,-0.32
2024-01-18T01:17:20.973Z,-0.34
2024-01-18T01:20:46.929Z,-0.36
2024-01-18T01:24:12.984Z,-0.38
2024-01-18T01:27:38.996Z,-0.42
2024-01-18T01:31:05.738Z,-0.45
2024-01-18T01:34:32.514Z,-0.47
2024-01-18T01:37:58.672Z,-0.49
2024-01-18T01:41:24.853Z,-0.50
2024-01-18T01:44:51.516Z,-0.50
2024-01-18T01:48:18.323Z,-0.49
2024-01-18T01:51:50.236Z,-0.48
2024-01-18T01:55:17.203Z,-0.47
2024-01-18T01:58:43.041Z,-0.41
2024-01-18T02:02:10.386Z,-0.34
2024-01-18T02:05:36.618Z,-0.26
2024-01-18T02:09:03.659Z,-0.18
2024-01-18T02:12:30.930Z,-0.10
2024-01-18T02:15:57.035Z,-0.03
2024-01-18T02:19:22.958Z,0.03
2024-01-18T02:22:50.218Z,0.06
2024-01-18T02:26:16.868Z,0.07
2024-01-18T02:29:43.350Z,0.07
2024-01-18T02:33:09.431Z,0.06
2024-01-18T02:36:36.728Z,0.03
2024-01-18T02:40:03.153Z,-0.03
2024-01-18T02:43:29.585Z,-0.08
2024-01-18T02:46:56.286Z,-0.12
2024-01-18T02:50:22.459Z,-0.17
2024-01-18T02:53:48.694Z,-0.23
2024-01-18T02:57:14.767Z,-0.28
2024-01-18T03:00:41.292Z,-0.33
2024-01-18T03:04:08.903Z,-0.37
2024-01-18T03:07:34.782Z,-0.42
2024-01-18T03:11:00.982Z,-0.46
2024-01-18T03:14:26.928Z,-0.47
2024-01-18T03:17:52.591Z,-0.46
2024-01-18T03:21:19.360Z,-0.45
2024-01-18T03:24:45.378Z,-0.40
2024-01-18T03:28:11.205Z,-0.35
2024-01-18T03:31:37.904Z,-0.30
2024-01-18T03:35:03.400Z,-0.25
2024-01-18T03:38:28.973Z,-0.20
2024-01-18T03:41:55.070Z,-0.16
2024-01-18T03:45:20.921Z,-0.12
2024-01-18T03:48:46.936Z,-0.10
2024-01-18T03:52:13.660Z,-0.14
2024-01-18T03:55:40.152Z,-0.19
2024-01-18T03:59:07.376Z,-0.24
2024-01-18T04:02:33.388Z,-0.31
2024-01-18T04:06:00.139Z,-0.36
2024-01-18T04:09:26.540Z,-0.41
2024-01-18T04:12:52.808Z,-0.44
2024-01-18T04:16:18.635Z,-0.47
2024-01-18T04:19:45.146Z,-0.53
2024-01-18T04:23:11.541Z,-0.57
2024-01-18T04:26:37.132Z,-0.60
2024-01-18T04:30:07.208Z,-0.62
2024-01-18T04:33:33.020Z,-0.65
2024-01-18T04:36:58.908Z,-0.68
2024-01-18T04:40:24.912Z,-0.69
2024-01-18T04:43:50.869Z,-0.70
2024-01-18T04:47:17.421Z,-0.69
2024-01-18T04:50:43.339Z,-0.65
2024-01-18T04:54:09.258Z,-0.61
2024-01-18T04:57:37.025Z,-0.53
2024-01-18T05:01:03.505Z,-0.49
2024-01-18T05:04:30.668Z,-0.44
2024-01-18T05:07:57.689Z,-0.39
2024-01-18T05:11:23.825Z,-0.35
2024-01-18T05:14:49.957Z,-0.33
2024-01-18T05:18:16.190Z,-0.33
2024-01-18T05:21:42.458Z,-0.34
2024-01-18T05:25:09.821Z,-0.36
2024-01-18T05:28:35.445Z,-0.39
2024-01-18T05:32:01.847Z,-0.42
2024-01-18T05:35:27.874Z,-0.47
2024-01-18T05:38:54.511Z,-0.53
2024-01-18T05:42:20.715Z,-0.60
2024-01-18T05:45:46.520Z,-0.65
2024-01-18T05:49:12.664Z,-0.71
2024-01-18T05:52:38.837Z,-0.74
2024-01-18T05:56:04.825Z,-0.78
2024-01-18T05:59:30.900Z,-0.82
2024-01-18T06:02:58.055Z,-0.87
2024-01-18T06:06:24.009Z,-0.94
2024-01-18T06:09:50.359Z,-0.99
2024-01-18T06:13:16.761Z,-1.01
2024-01-18T06:16:43.209Z,-1.02
2024-01-18T06:20:11.094Z,-1.01
2024-01-18T06:23:37.204Z,-0.97
2024-01-18T06:27:03.839Z,-0.92
2024-01-18T06:30:30.132Z,-0.89
2024-01-18T06:33:57.648Z,-0.88
2024-01-18T06:37:24.109Z,-0.90
2024-01-18T06:40:50.229Z,-0.90
2024-01-18T06:44:16.107Z,-0.92
2024-01-18T06:47:42.089Z,-0.96
2024-01-18T06:51:08.272Z,-1.00
2024-01-18T06:54:34.312Z,-1.04
2024-01-18T06:58:03.854Z,-1.09
2024-01-18T07:01:30.331Z,-1.14
2024-01-18T07:04:56.666Z,-1.18
2024-01-18T07:08:22.479Z,-1.21
2024-01-18T07:11:48.760Z,-1.23
2024-01-18T07:15:15.294Z,-1.24
2024-01-18T07:18:41.612Z,-1.25
2024-01-18T07:22:09.149Z,-1.26
2024-01-18T07:25:37.949Z,-1.27
2024-01-18T07:29:04.389Z,-1.28
2024-01-18T07:32:30.436Z,-1.28
2024-01-18T07:35:56.279Z,-1.26
2024-01-18T07:39:22.327Z,-1.23
2024-01-18T07:42:48.770Z,-1.19
2024-01-18T07:46:17.603Z,-1.13
2024-01-18T07:49:50.066Z,-1.06
2024-01-18T07:53:16.525Z,-0.97
2024-01-18T07:56:43.584Z,-0.87
2024-01-18T08:00:12.912Z,-0.77
2024-01-18T08:03:39.542Z,-0.69
2024-01-18T08:07:05.902Z,-0.65
2024-01-18T08:10:32.217Z,-0.60
2024-01-18T08:13:58.241Z,-0.58
2024-01-18T08:17:23.899Z,-0.55
2024-01-18T08:20:50.323Z,-0.52
2024-01-18T08:24:16.372Z,-0.51
2024-01-18T08:27:44.055Z,-0.49
2024-01-18T08:31:10.046Z,-0.46
2024-01-18T08:34:37.337Z,-0.43
2024-01-18T08:38:03.521Z,-0.41
2024-01-18T08:41:31.720Z,-0.40
2024-01-18T08:44:58.179Z,-0.37
2024-01-18T08:48:24.343Z,-0.35
2024-01-18T08:51:49.997Z,-0.36
2024-01-18T08:55:16.714Z,-0.38
2024-01-18T08:58:42.761Z,-0.36
2024-01-18T09:02:14.584Z,-0.36
2024-01-18T09:05:47.441Z,-0.33
2024-01-18T09:09:15.004Z,-0.26
2024-01-18T09:12:40.758Z,-0.20
2024-01-18T09:16:08.404Z,-0.13
2024-01-18T09:19:35.496Z,-0.04
2024-01-18T09:23:09.413Z,0.06
2024-01-18T09:26:39.515Z,0.21
2024-01-18T09:30:06.724Z,0.41
2024-01-18T09:33:32.271Z,0.56
2024-01-18T09:36:59.707Z,0.68
2024-01-18T09:40:30.266Z,0.85
2024-01-18T09:44:04.705Z,1.03
2024-01-18T09:47:31.263Z,1.17
2024-01-18T09:50:59.131Z,1.28
2024-01-18T09:54:25.244Z,1.31
2024-01-18T09:57:57.032Z,1.34
2024-01-18T10:01:25.302Z,1.32
2024-01-18T10:04:51.263Z,1.28
2024-01-18T10:08:17.978Z,1.28
2024-01-18T10:11:45.577Z,1.27
2024-01-18T10:15:13.202Z,1.27
2024-01-18T10:18:40.507Z,1.29
2024-01-18T10:22:08.692Z,1.31
2024-01-18T10:25:37.017Z,1.33
2024-01-18T10:29:04.512Z,1.34
2024-01-18T10:32:36.130Z,1.37
2024-01-18T10:36:02.605Z,1.37
2024-01-18T10:39:28.635Z,1.38
2024-01-18T10:42:54.906Z,1.40
2024-01-18T10:46:22.617Z,1.40
2024-01-18T10:49:48.914Z,1.44
2024-01-18T10:53:16.961Z,1.48
2024-01-18T10:56:42.813Z,1.52
2024-01-18T11:00:17.573Z,1.59
2024-01-18T11:03:47.928Z,1.69
2024-01-18T11:07:16.808Z,1.80
2024-01-18T11:10:43.685Z,1.92
2024-01-18T11:14:13.186Z,2.01
2024-01-18T11:17:44.648Z,2.08
2024-01-18T11:21:11.052Z,2.15
2024-01-18T11:24:38.348Z,2.21
2024-01-18T11:28:04.685Z,2.24
2024-01-18T11:31:52.756Z,2.26
2024-01-18T11:35:21.989Z,2.29
2024-01-18T11:38:49.809Z,2.29
2024-01-18T11:42:19.440Z,2.30
2024-01-18T11:45:50.465Z,2.29
2024-01-18T11:49:17.418Z,2.26
2024-01-18T11:52:45.804Z,2.21
2024-01-18T11:56:12.885Z,2.21
2024-01-18T11:59:39.371Z,2.21
2024-01-18T12:03:08.641Z,2.18
2024-01-18T12:06:35.262Z,2.17
2024-01-18T12:10:02.118Z,2.14
2024-01-18T12:13:29.789Z,2.12
2024-01-18T12:16:56.371Z,2.10
2024-01-18T12:20:22.618Z,2.09
2024-01-18T12:23:49.723Z,2.07
2024-01-18T12:27:17.006Z,2.07
2024-01-18T12:30:44.903Z,2.07
2024-01-18T12:34:11.972Z,2.06
2024-01-18T12:37:39.487Z,2.07
2024-01-18T12:41:06.555Z,2.05
2024-01-18T12:44:32.761Z,2.03
2024-01-18T12:47:59.047Z,2.02
2024-01-18T12:51:25.544Z,2.02
2024-01-18T12:54:52.103Z,2.01
2024-01-18T12:58:19.232Z,2.00
2024-01-18T13:01:52.777Z,2.01
2024-01-18T13:05:19.022Z,2.04
2024-01-18T13:08:45.305Z,2.07
2024-01-18T13:12:11.965Z,2.11
2024-01-18T13:15:40.129Z,2.16
2024-01-18T13:19:08.090Z,2.16
2024-01-18T13:22:34.620Z,2.14
2024-01-18T13:26:00.646Z,2.09
2024-01-18T13:29:26.918Z,2.03
2024-01-18T13:32:57.258Z,1.99
2024-01-18T13:36:23.697Z,1.92
2024-01-18T13:39:49.646Z,1.84
2024-01-18T13:43:15.948Z,1.78
2024-01-18T13:46:42.411Z,1.73
2024-01-18T13:50:10.225Z,1.68
2024-01-18T13:53:37.858Z,1.59
2024-01-18T13:57:04.673Z,1.54
2024-01-18T14:00:30.835Z,1.48
2024-01-18T14:03:57.307Z,1.42
2024-01-18T14:07:23.404Z,1.33
2024-01-18T14:10:49.791Z,1.29
2024-01-18T14:14:15.855Z,1.27
2024-01-18T14:17:41.515Z,1.23
2024-01-18T14:21:09.134Z,1.19
2024-01-18T14:24:35.322Z,1.16
2024-01-18T14:28:03.177Z,1.14
2024-01-18T14:31:29.701Z,1.14
2024-01-18T14:34:56.041Z,1.16
2024-01-18T14:38:22.824Z,1.17
2024-01-18T14:41:48.708Z,1.17
2024-01-18T14:45:15.160Z,1.18
2024-01-18T14:48:41.965Z,1.20
2024-01-18T14:52:12.233Z,1.22
2024-01-18T14:55:39.841Z,1.22
2024-01-18T14:59:06.140Z,1.21
2024-01-18T15:02:32.891Z,1.16
2024-01-18T15:05:59.223Z,1.10
2024-01-18T15:09:25.482Z,1.04
2024-01-18T15:12:52.491Z,0.98
2024-01-18T15:16:19.222Z,0.93
2024-01-18T15:19:45.829Z,0.87
2024-01-18T15:23:12.233Z,0.80
2024-01-18T15:26:37.862Z,0.72
2024-01-18T15:30:05.931Z,0.65
2024-01-18T15:33:32.001Z,0.60
2024-01-18T15:36:58.333Z,0.55
2024-01-18T15:40:24.706Z,0.49
2024-01-18T15:43:50.989Z,0.45
2024-01-18T15:47:16.560Z,0.40
2024-01-18T15:50:42.220Z,0.36
2024-01-18T15:54:08.626Z,0.33
2024-01-18T15:57:34.711Z,0.33
2024-01-18T16:01:02.060Z,0.32
2024-01-18T16:04:28.435Z,0.32
2024-01-18T16:07:54.662Z,0.36
2024-01-18T16:11:20.583Z,0.40
2024-01-18T16:14:48.273Z,0.46
2024-01-18T16:18:14.348Z,0.52
2024-01-18T16:21:40.087Z,0.54
2024-01-18T16:25:07.538Z,0.58
2024-01-18T16:28:34.802Z,0.59
2024-01-18T16:32:02.568Z,0.56
2024-01-18T16:35:30.980Z,0.53
2024-01-18T16:38:56.677Z,0.46
2024-01-18T16:42:22.299Z,0.39
2024-01-18T16:45:48.384Z,0.30
2024-01-18T16:49:14.984Z,0.20
2024-01-18T16:52:41.292Z,0.10
2024-01-18T16:56:08.108Z,0.01
2024-01-18T16:59:33.559Z,-0.09
2024-01-18T17:02:59.400Z,-0.20
2024-01-18T17:06:26.014Z,-0.29
2024-01-18T17:09:52.987Z,-0.39
2024-01-18T17:13:19.117Z,-0.50
2024-01-18T17:16:45.251Z,-0.57
2024-01-18T17:20:12.711Z,-0.66
2024-01-18T17:23:39.170Z,-0.74
2024-01-18T17:27:05.606Z,-0.82
2024-01-18T17:30:31.746Z,-0.88
2024-01-18T17:33:58.152Z,-0.93
2024-01-18T17:37:24.452Z,-0.96
2024-01-18T17:40:50.739Z,-0.97
2024-01-18T17:44:18.176Z,-0.95
2024-01-18T17:47:45.949Z,-0.92
2024-01-18T17:51:16.535Z,-0.88
2024-01-18T17:54:43.049Z,-0.85
2024-01-18T17:58:08.773Z,-0.83
2024-01-18T18:01:35.479Z,-0.85
2024-01-18T18:05:01.450Z,-0.87
2024-01-18T18:08:28.020Z,-0.91
2024-01-18T18:11:55.152Z,-0.96
2024-01-18T18:15:20.977Z,-1.04
2024-01-18T18:18:46.741Z,-1.10
2024-01-18T18:22:12.933Z,-1.19
2024-01-18T18:25:39.074Z,-1.28
2024-01-18T18:29:07.245Z,-1.35
2024-01-18T18:32:34.339Z,-1.43
2024-01-18T18:36:00.540Z,-1.49
2024-01-18T18:39:26.991Z,-1.55
2024-01-18T18:42:52.904Z,-1.60
2024-01-18T18:46:19.417Z,-1.65
2024-01-18T18:49:48.556Z,-1.71
2024-01-18T18:53:14.895Z,-1.75
2024-01-18T18:56:40.699Z,-1.79
2024-01-18T19:00:07.503Z,-1.81
2024-01-18T19:03:34.203Z,-1.83
2024-01-18T19:07:01.574Z,-1.83
2024-01-18T19:10:27.768Z,-1.78
2024-01-18T19:13:55.094Z,-1.72
2024-01-18T19:17:20.601Z,-1.66
2024-01-18T19:20:46.832Z,-1.61
2024-01-18T19:24:13.260Z,-1.64
2024-01-18T19:27:39.829Z,-1.69
2024-01-18T19:31:06.128Z,-1.76
2024-01-18T19:34:32.175Z,-1.81
2024-01-18T19:38:01.073Z,-1.83
2024-01-18T19:41:29.043Z,-1.85
2024-01-18T19:44:55.591Z,-1.92
2024-01-18T19:48:21.449Z,-2.01
2024-01-18T19:51:48.819Z,-2.07
2024-01-18T19:55:14.693Z,-2.14
2024-01-18T19:58:42.983Z,-2.17
2024-01-18T20:02:09.651Z,-2.18
2024-01-18T20:05:35.690Z,-2.19
2024-01-18T20:09:02.071Z,-2.20
2024-01-18T20:12:33.060Z,-2.20
2024-01-18T20:15:59.609Z,-2.20
2024-01-18T20:19:26.286Z,-2.19
2024-01-18T20:22:52.375Z,-2.16
2024-01-18T20:26:18.939Z,-2.14
2024-01-18T20:29:46.354Z,-2.10
2024-01-18T20:33:15.295Z,-2.07
2024-01-18T20:36:41.609Z,-2.01
2024-01-18T20:40:10.017Z,-1.94
2024-01-18T20:43:36.085Z,-1.85
2024-01-18T20:47:02.493Z,-1.74
2024-01-18T20:50:28.989Z,-1.65
2024-01-18T20:53:55.262Z,-1.56
2024-01-18T20:57:21.504Z,-1.50
2024-01-18T21:00:47.724Z,-1.45
2024-01-18T21:04:15.364Z,-1.43
2024-01-18T21:07:41.373Z,-1.39
2024-01-18T21:11:07.596Z,-1.38
2024-01-18T21:14:33.921Z,-1.40
2024-01-18T21:18:00.054Z,-1.41
2024-01-18T21:21:26.374Z,-1.47
2024-01-18T21:24:52.438Z,-1.48
2024-01-18T21:28:18.579Z,-1.49
2024-01-18T21:31:45.668Z,-1.52
2024-01-18T21:35:12.378Z,-1.53
2024-01-18T21:38:40.607Z,-1.56
2024-01-18T21:42:06.750Z,-1.59
2024-01-18T21:45:32.753Z,-1.61
2024-01-18T21:48:59.029Z,-1.62
2024-01-18T21:52:27.512Z,-1.61
2024-01-18T21:55:54.636Z,-1.58
2024-01-18T21:59:28.593Z,-1.53
2024-01-18T22:03:02.099Z,-1.46
2024-01-18T22:06:28.133Z,-1.39
2024-01-18T22:09:54.181Z,-1.31
2024-01-18T22:13:19.853Z,-1.26
2024-01-18T22:16:45.489Z,-1.17
2024-01-18T22:20:14.598Z,-1.08
2024-01-18T22:23:40.926Z,-1.01
2024-01-18T22:27:07.124Z,-1.01
2024-01-18T22:30:32.852Z,-1.03
2024-01-18T22:33:58.954Z,-1.02
2024-01-18T22:37:25.012Z,-1.04
2024-01-18T22:40:51.352Z,-1.07
2024-01-18T22:44:17.210Z,-1.13
2024-01-18T22:47:42.982Z,-1.17
2024-01-18T22:51:09.271Z,-1.20
2024-01-18T22:54:36.012Z,-1.22
2024-01-18T22:58:02.277Z,-1.26
2024-01-18T23:01:28.628Z,-1.28
2024-01-18T23:04:54.525Z,-1.34
2024-01-18T23:08:21.458Z,-1.37
2024-01-18T23:11:47.742Z,-1.40
2024-01-18T23:15:14.636Z,-1.45
2024-01-18T23:18:40.351Z,-1.48
2024-01-18T23:22:06.568Z,-1.49
2024-01-18T23:25:33.023Z,-1.48
2024-01-18T23:28:59.623Z,-1.49
2024-01-18T23:32:25.572Z,-1.47
2024-01-18T23:35:52.371Z,-1.46
2024-01-18T23:39:21.634Z,-1.42
2024-01-18T23:42:48.045Z,-1.39
2024-01-18T23:46:13.920Z,-1.35
2024-01-18T23:49:40.328Z,-1.31
2024-01-18T23:53:07.067Z,-1.30
2024-01-18T23:56:33.256Z,-1.29
2024-01-18T23:59:59.738Z,-1.30
